Thursday, August 16, 2018, 5:34 PM EDT
Back to Local

KMHT, Manchester Airport

Location: Manchester, NH, United States Lat: 42.933
Local Time: 5:34 PM EDT (21:34 GMT) Lon: -71.433
Time Zone: US/Eastern Elev: 232 ft

Show me the last for .
Show Decoded

2018-08-16 16:53 METAR KMHT 162053Z 33009KT 10SM FEW060 31/14 A2998 RMK AO2 SLP161 T03060139
                 53006 =
2018-08-16 15:53 METAR KMHT 161953Z 33010G18KT 10SM FEW060 32/13 A2997 RMK AO2 SLP158 T03170128 =
2018-08-16 14:53 METAR KMHT 161853Z 29010G20KT 10SM FEW055 32/13 A2996 RMK AO2 SLP154 T03170133 =
2018-08-16 13:53 METAR KMHT 161753Z 32014KT 10SM SCT048 32/17 A2996 RMK AO2 SLP154 T03170172
                 10317 20233 56002 =
2018-08-16 12:53 METAR KMHT 161653Z 28011G16KT 10SM FEW038 SCT055 BKN070 31/19 A2997 RMK AO2
                 SLP155 T03060189 =
2018-08-16 11:53 METAR KMHT 161553Z 30006KT 10SM FEW038 SCT048 BKN060 29/20 A2996 RMK AO2 SLP155
                 T02940200 =
2018-08-16 10:53 METAR KMHT 161453Z 27007KT 10SM SCT035 BKN048 BKN065 28/21 A2997 RMK AO2 SLP156
                 T02830206 58001 =
2018-08-16 09:53 METAR KMHT 161353Z 24005KT 10SM FEW100 FEW250 27/21 A2997 RMK AO2 SLP159
                 T02670206 =
2018-08-16 08:53 METAR KMHT 161253Z 25003KT 10SM CLR 25/21 A2998 RMK AO2 SLP159 T02500206 =
2018-08-16 07:53 METAR KMHT 161153Z 00000KT 10SM CLR 23/21 A2997 RMK AO2 SLP158 T02330206 10239
                 20217 53015 =
2018-08-16 06:53 METAR KMHT 161053Z 18005KT 10SM FEW250 22/20 A2995 RMK AO2 SLP150 T02170200 =
2018-08-16 05:53 METAR KMHT 160953Z 18003KT 10SM FEW100 SCT250 22/20 A2994 RMK AO2 SLP147
                 T02170200 =
2018-08-16 04:53 METAR KMHT 160853Z 22004KT 10SM FEW110 SCT230 22/20 A2992 RMK AO2 SLP142
                 T02170200 53008 =
2018-08-16 03:53 METAR KMHT 160753Z 00000KT 10SM SCT230 23/21 A2991 RMK AO2 SLP137 T02280206 =
2018-08-16 02:53 METAR KMHT 160653Z 28004KT 10SM FEW120 BKN220 23/21 A2991 RMK AO2 SLP136
                 T02330206 =
2018-08-16 01:53 METAR KMHT 160553Z 23003KT 10SM FEW110 SCT150 BKN210 24/21 A2990 RMK AO2 SLP133
                 60000 T02390206 10267 20233 51007 =
2018-08-16 00:53 METAR KMHT 160453Z 05004KT 10SM FEW080 BKN110 OVC210 24/21 A2989 RMK AO2
                 RAB26E39 SLP131 P0000 T02390206 403170200 =
2018-08-15 23:53 METAR KMHT 160353Z VRB03KT 10SM OVC150 24/21 A2989 RMK AO2 SLP129 T02440206 =
2018-08-15 22:53 METAR KMHT 160253Z 19004KT 10SM SCT130 OVC250 24/21 A2988 RMK AO2 SLP127
                 T02440206 50013 =
2018-08-15 21:53 METAR KMHT 160153Z 00000KT 10SM OVC250 26/21 A2988 RMK AO2 SLP128 T02560211 =
2018-08-15 20:53 METAR KMHT 160053Z 00000KT 10SM BKN250 26/22 A2987 RMK AO2 SLP125 T02610222 =
2018-08-15 19:53 METAR KMHT 152353Z 19004KT 10SM BKN250 27/22 A2984 RMK AO2 SLP114 T02670222
                 10317 20267 53008 =
2018-08-15 18:53 METAR KMHT 152253Z 00000KT 10SM FEW045 SCT250 29/20 A2982 RMK AO2 SLP108
                 T02890200 =
2018-08-15 17:53 METAR KMHT 152153Z 30004KT 10SM FEW045 FEW250 31/19 A2982 RMK AO2 SLP106
                 T03060194 =

Support USWX by starting your Amazon purchase here.